createdAt,value
2023-05-27T00:00:55.087Z,14.96
2023-05-27T00:05:57.072Z,14.88
2023-05-27T00:10:59.048Z,14.83
2023-05-27T00:16:01.221Z,14.76
2023-05-27T00:21:03.987Z,14.69
2023-05-27T00:26:06.249Z,14.68
2023-05-27T00:31:08.443Z,14.69
2023-05-27T00:36:11.141Z,14.63
2023-05-27T00:41:14.112Z,14.62
2023-05-27T00:46:16.466Z,14.49
2023-05-27T00:51:18.814Z,14.54
2023-05-27T00:56:21.796Z,14.49
2023-05-27T01:01:27.100Z,14.47
2023-05-27T01:07:05.234Z,14.50
2023-05-27T01:12:17.625Z,14.52
2023-05-27T01:17:20.995Z,14.49
2023-05-27T01:22:28.701Z,14.55
2023-05-27T01:27:30.844Z,14.55
2023-05-27T01:33:08.218Z,14.46
2023-05-27T01:38:13.969Z,14.52
2023-05-27T01:43:16.483Z,14.53
2023-05-27T01:48:20.563Z,14.49
2023-05-27T01:53:22.656Z,14.50
2023-05-27T01:58:24.657Z,14.47
2023-05-27T02:03:35.017Z,14.50
2023-05-27T02:08:37.153Z,14.39
2023-05-27T02:13:42.415Z,14.40
2023-05-27T02:18:50.351Z,14.39
2023-05-27T02:23:53.233Z,14.35
2023-05-27T02:28:55.532Z,14.41
2023-05-27T02:33:57.650Z,14.39
2023-05-27T02:39:00.654Z,14.37
2023-05-27T02:44:03.922Z,14.34
2023-05-27T02:49:06.185Z,14.35
2023-05-27T02:54:09.575Z,14.35
2023-05-27T02:59:14.912Z,14.42
2023-05-27T03:04:17.784Z,14.41
2023-05-27T03:09:19.767Z,14.46
2023-05-27T03:14:22.060Z,14.42
2023-05-27T03:19:24.251Z,14.41
2023-05-27T03:24:26.613Z,14.41
2023-05-27T03:29:30.137Z,14.36
2023-05-27T03:34:35.851Z,14.29
2023-05-27T03:39:38.486Z,14.22
2023-05-27T03:44:41.294Z,14.19
2023-05-27T03:49:43.289Z,14.13
2023-05-27T03:54:45.685Z,14.03
2023-05-27T03:59:51.404Z,14.09
2023-05-27T04:04:57.455Z,14.06
2023-05-27T04:09:59.466Z,14.06
2023-05-27T04:15:01.653Z,14.05
2023-05-27T04:20:15.250Z,14.02
2023-05-27T04:25:21.266Z,13.92
2023-05-27T04:30:49.508Z,13.91
2023-05-27T04:36:01.310Z,13.84
2023-05-27T04:41:08.316Z,13.79
2023-05-27T04:46:30.318Z,13.75
2023-05-27T04:51:32.750Z,13.77
2023-05-27T04:56:40.916Z,13.77
2023-05-27T05:02:10.782Z,13.78
2023-05-27T05:07:21.118Z,13.81
2023-05-27T05:12:27.359Z,13.76
2023-05-27T05:17:30.475Z,13.85
2023-05-27T05:22:32.971Z,13.88
2023-05-27T05:27:35.640Z,13.94
2023-05-27T05:32:38.629Z,14.00
2023-05-27T05:37:56.175Z,14.06
2023-05-27T05:42:58.496Z,14.08
2023-05-27T05:48:05.270Z,14.09
2023-05-27T05:53:08.577Z,14.02
2023-05-27T05:58:10.784Z,14.16
2023-05-27T06:03:13.441Z,14.22
2023-05-27T06:08:26.800Z,14.24
2023-05-27T06:13:38.096Z,14.35
2023-05-27T06:18:47.093Z,14.46
2023-05-27T06:23:50.740Z,14.53
2023-05-27T06:28:54.414Z,14.61
2023-05-27T06:33:56.580Z,14.77
2023-05-27T06:38:59.838Z,14.91
2023-05-27T06:44:03.213Z,15.12
2023-05-27T06:49:24.803Z,15.30
2023-05-27T06:54:27.107Z,15.32
2023-05-27T06:59:39.041Z,15.52
2023-05-27T07:04:41.421Z,15.61
2023-05-27T07:09:45.025Z,15.73
2023-05-27T07:14:47.567Z,15.89
2023-05-27T07:19:49.828Z,16.01
2023-05-27T07:24:55.222Z,16.10
2023-05-27T07:29:59.252Z,16.32
2023-05-27T07:35:11.317Z,16.46
2023-05-27T07:40:13.914Z,16.54
2023-05-27T07:45:17.086Z,16.60
2023-05-27T07:50:19.873Z,16.60
2023-05-27T07:55:43.684Z,16.90
2023-05-27T08:00:46.407Z,17.08
2023-05-27T08:05:50.956Z,17.13
2023-05-27T08:11:11.469Z,17.41
2023-05-27T08:16:40.189Z,17.61
2023-05-27T08:22:02.264Z,17.86
2023-05-27T08:28:05.398Z,18.10
2023-05-27T08:33:28.158Z,18.18
2023-05-27T08:38:30.899Z,18.94
2023-05-27T08:43:46.542Z,19.49
2023-05-27T08:48:51.162Z,19.60
2023-05-27T08:53:53.553Z,19.85
2023-05-27T08:58:56.766Z,20.24
2023-05-27T09:03:58.902Z,20.90
2023-05-27T09:09:02.881Z,21.67
2023-05-27T09:14:05.160Z,21.35
2023-05-27T09:19:22.869Z,21.88
2023-05-27T09:24:38.637Z,21.90
2023-05-27T09:29:41.918Z,22.06
2023-05-27T09:34:47.885Z,22.89
2023-05-27T09:39:53.123Z,23.34
2023-05-27T09:44:57.104Z,23.18
2023-05-27T09:50:01.573Z,22.80
2023-05-27T09:55:03.795Z,21.81
2023-05-27T10:00:17.447Z,21.89
2023-05-27T10:05:22.240Z,22.51
2023-05-27T10:10:24.350Z,22.69
2023-05-27T10:15:32.447Z,22.49
2023-05-27T10:20:36.098Z,22.50
2023-05-27T10:25:47.296Z,22.99
2023-05-27T10:30:49.352Z,23.08
2023-05-27T10:35:52.179Z,24.42
2023-05-27T10:41:02.190Z,23.50
2023-05-27T10:46:13.889Z,22.95
2023-05-27T10:51:16.258Z,22.15
2023-05-27T10:56:19.597Z,23.12
2023-05-27T11:01:25.426Z,22.80
2023-05-27T11:06:27.726Z,23.23
2023-05-27T11:11:29.583Z,23.67
2023-05-27T11:16:31.723Z,23.45
2023-05-27T11:21:50.571Z,23.71
2023-05-27T11:26:52.976Z,22.87
2023-05-27T11:31:55.181Z,22.83
2023-05-27T11:37:08.463Z,23.07
2023-05-27T11:42:10.565Z,23.00
2023-05-27T11:47:12.541Z,22.71
2023-05-27T11:52:14.457Z,22.77
2023-05-27T11:57:16.423Z,22.23
2023-05-27T12:02:18.599Z,22.34
2023-05-27T12:07:21.678Z,22.33
2023-05-27T12:12:23.881Z,22.36
2023-05-27T12:17:25.934Z,22.37
2023-05-27T12:22:27.963Z,22.23
2023-05-27T12:27:30.535Z,22.22
2023-05-27T12:32:32.678Z,22.17
2023-05-27T12:37:34.600Z,22.18
2023-05-27T12:42:36.771Z,22.40
2023-05-27T12:47:39.266Z,22.63
2023-05-27T12:52:49.211Z,23.02
2023-05-27T12:57:52.974Z,22.81
2023-05-27T13:02:55.075Z,23.02
2023-05-27T13:07:58.842Z,22.97
2023-05-27T13:13:01.947Z,22.65
2023-05-27T13:18:08.206Z,22.86
2023-05-27T13:23:13.977Z,22.58
2023-05-27T13:28:16.042Z,22.69
2023-05-27T13:33:18.363Z,22.82
2023-05-27T13:38:20.581Z,22.84
2023-05-27T13:43:22.519Z,22.97
2023-05-27T13:48:24.699Z,22.71
2023-05-27T13:53:26.736Z,22.57
2023-05-27T13:58:29.926Z,22.39
2023-05-27T14:03:45.650Z,22.27
2023-05-27T14:08:48.078Z,22.02
2023-05-27T14:13:51.378Z,21.59
2023-05-27T14:18:53.460Z,20.71
2023-05-27T14:23:56.036Z,20.17
2023-05-27T14:28:57.996Z,19.73
2023-05-27T14:34:00.563Z,19.48
2023-05-27T14:39:06.819Z,19.34
2023-05-27T14:44:13.572Z,19.23
2023-05-27T14:49:16.361Z,19.21
2023-05-27T14:54:18.485Z,19.36
2023-05-27T14:59:22.891Z,19.49
2023-05-27T15:04:24.945Z,19.58
2023-05-27T15:09:28.103Z,19.86
2023-05-27T15:14:30.310Z,19.97
2023-05-27T15:19:32.750Z,19.62
2023-05-27T15:24:35.397Z,19.49
2023-05-27T15:29:37.815Z,19.28
2023-05-27T15:34:39.889Z,19.16
2023-05-27T15:39:42.546Z,18.99
2023-05-27T15:44:44.546Z,19.09
2023-05-27T15:49:46.608Z,19.24
2023-05-27T15:54:51.907Z,19.44
2023-05-27T15:59:54.851Z,19.63
2023-05-27T16:04:56.950Z,19.75
2023-05-27T16:10:00.010Z,19.76
2023-05-27T16:15:03.663Z,19.75
2023-05-27T16:20:06.317Z,19.73
2023-05-27T16:25:15.321Z,19.72
2023-05-27T16:30:17.317Z,19.74
2023-05-27T16:35:20.359Z,19.68
2023-05-27T16:40:26.289Z,19.71
2023-05-27T16:45:28.653Z,19.85
2023-05-27T16:50:30.939Z,19.78
2023-05-27T16:55:33.095Z,19.94
2023-05-27T17:00:35.882Z,20.00
2023-05-27T17:05:38.533Z,20.03
2023-05-27T17:10:40.436Z,20.13
2023-05-27T17:15:42.962Z,20.18
2023-05-27T17:20:45.010Z,20.18
2023-05-27T17:25:47.184Z,20.14
2023-05-27T17:30:49.568Z,20.19
2023-05-27T17:35:54.720Z,20.00
2023-05-27T17:40:58.889Z,20.03
2023-05-27T17:46:01.910Z,20.10
2023-05-27T17:51:04.044Z,19.97
2023-05-27T17:56:06.626Z,20.00
2023-05-27T18:01:09.518Z,20.03
2023-05-27T18:06:12.978Z,19.93
2023-05-27T18:11:16.437Z,19.83
2023-05-27T18:16:18.687Z,19.80
2023-05-27T18:21:21.601Z,19.85
2023-05-27T18:26:24.865Z,19.69
2023-05-27T18:31:27.368Z,19.58
2023-05-27T18:36:29.355Z,19.54
2023-05-27T18:41:31.468Z,19.51
2023-05-27T18:46:35.018Z,19.46
2023-05-27T18:51:37.196Z,19.40
2023-05-27T18:56:39.197Z,19.20
2023-05-27T19:01:42.038Z,19.07
2023-05-27T19:06:44.124Z,18.90
2023-05-27T19:11:46.849Z,18.73
2023-05-27T19:16:48.838Z,18.79
2023-05-27T19:21:50.829Z,18.83
2023-05-27T19:26:52.813Z,18.64
2023-05-27T19:32:09.331Z,18.45
2023-05-27T19:37:11.639Z,18.38
2023-05-27T19:42:20.600Z,18.26
2023-05-27T19:47:22.853Z,18.19
2023-05-27T19:52:24.981Z,18.24
2023-05-27T19:57:26.980Z,18.23
2023-05-27T20:02:28.893Z,18.11
2023-05-27T20:07:32.185Z,18.12
2023-05-27T20:12:40.280Z,17.91
2023-05-27T20:17:42.976Z,17.79
2023-05-27T20:22:49.730Z,17.84
2023-05-27T20:27:52.991Z,17.93
2023-05-27T20:32:55.517Z,17.82
2023-05-27T20:37:57.499Z,17.83
2023-05-27T20:43:05.188Z,17.90
2023-05-27T20:48:11.861Z,17.95
2023-05-27T20:53:14.365Z,17.84
2023-05-27T20:58:16.354Z,17.88
2023-05-27T21:03:21.268Z,17.91
2023-05-27T21:08:26.172Z,17.76
2023-05-27T21:13:29.581Z,17.84
2023-05-27T21:18:34.640Z,17.66
2023-05-27T21:23:36.776Z,17.72
2023-05-27T21:28:39.828Z,17.76
2023-05-27T21:33:41.759Z,16.80
2023-05-27T21:38:47.182Z,15.91
2023-05-27T21:43:52.459Z,15.08
2023-05-27T21:48:54.657Z,14.58
2023-05-27T21:53:58.579Z,14.42
2023-05-27T21:59:04.297Z,14.32
2023-05-27T22:04:07.924Z,14.13
2023-05-27T22:09:12.346Z,14.04
2023-05-27T22:14:20.601Z,14.17
2023-05-27T22:19:28.347Z,14.27
2023-05-27T22:24:30.642Z,14.18
2023-05-27T22:29:32.740Z,14.36
2023-05-27T22:34:34.868Z,14.16
2023-05-27T22:39:36.870Z,14.26
2023-05-27T22:44:39.035Z,14.41
2023-05-27T22:49:41.012Z,14.47
2023-05-27T22:54:43.147Z,14.44
2023-05-27T22:59:45.291Z,14.30
2023-05-27T23:04:47.319Z,14.39
2023-05-27T23:09:49.432Z,14.46
2023-05-27T23:14:51.520Z,14.53
2023-05-27T23:19:56.908Z,14.58
2023-05-27T23:24:59.329Z,14.53
2023-05-27T23:30:01.400Z,14.47
2023-05-27T23:35:03.581Z,14.48
2023-05-27T23:40:07.035Z,14.40
2023-05-27T23:45:11.573Z,14.48
2023-05-27T23:50:13.596Z,14.50
2023-05-27T23:55:21.675Z,14.51
